Nassau, Bahamas

6:26 PM EDT on August 28, 2015 (GMT -0400)
Nassau International | | Change Station
CLOSE
Current Station
Airport
Location: Nassau,
Elevation: 23 ft
Nearby Weather Stations

Elev 23 ft 25.04 °N, 77.47 °W | Updated 26 minutes ago

Scattered Clouds
Scattered Clouds
88 °F
Feels Like 98 °F
N
9
Wind Variable Wind from East

Today
High -- | Low -- °F
--% Chance of Precip.
Yesterday
High -- | Low -- °F
Precip. -- in
6:49 AM 7:32 PM
Waxing Gibbous, 99% visible
Pressure 29.99 in
Visibility 5.6 miles
Clouds Scattered Clouds 1600 ft
Scattered Clouds 22000 ft
Heat Index 98 °F
Dew Point 75 °F
Humidity 66%
Rainfall 0.00 in
Snow Depth Not available.
UV 2 out of 12
Pollen Not available.
Air Quality Not available.
Flu Activity Not available.
METAR MYNN 282200Z 09008KT 9000 SCT016 SCT220 31/24 A2999
Pressure 29.99 in
Visibility 5.6 miles
Clouds Scattered Clouds 1600 ft
Scattered Clouds 22000 ft
Heat Index 98 °F
Dew Point 75 °F
Humidity 66%
Rainfall 0.00 in
Snow Depth Not available.
UV 2 out of 12
Pollen Not available.
Air Quality Not available.
Flu Activity Not available.
METAR MYNN 282200Z 09008KT 9000 SCT016 SCT220 31/24 A2999

10-Day Weather Forecast

×

Almanac

Astronomy

Aug. 28, 2015 Rise Set
Actual Time
Civil Twilight
Nautical Twilight
Astronomical Twilight
Moon
Length of Visible Light
Length of Day
Tomorrow will be .
, % of the Moon is Illuminated

Today's Extremes

Country Highs Country Lows

Community

WunderPhotos

Upload Photos

1,850,515 photos uploaded!

WunderBlogs® & News

Nearby

Air Quality

  Air Quality AQ Index Pollutant
Not available.

Snow Depth

Station Depth Elevation

Earthquake Activity

City Distance Mag. Time & Date
Minimum magnitude displayed is 2.5.

Coastal Water Temperatures

Place Temperature

Stations

Nearby Weather Stations

Station Location Temp. Windchill Dew Point Humidity Wind Precip. Elev Updated Type